Latest Weather Observations for Ferny Creek

IDV60801

Issued at 11:32 pm EST Monday 25 July 2016 (issued every 30 minutes, with the page automatically refreshed every 10 minutes)

About weather observations | Map of weather stations | Latest weather observations for VIC | Other Formats
Station Details ID: 086266 Name: FERNY CREEK Lat: -37.87 Lon: 145.35 Height: 512.9 m
Data from the previous 72 hours. | See also: Recent months at Ferny Creek
Date/Time
EST
Temp
°C
App
Temp
°C
Dew
Point
°C
Rel
Hum
%
Delta-T
°C
Wind Press
QNH
hPa
Press
MSL
hPa
Rain since
9am
mm
Dir  Spd
km/h
Gust
km/h
Spd
kts
Gust
kts
25/11:30pm 3.2 -0.4 0.8 84 0.9 W 9 19 5 10 1006.9 1007.6 7.4
25/11:00pm 2.8 -0.2 1.0 88 0.7 W 6 22 3 12 1006.6 1007.2 7.4
25/10:30pm 2.9 -0.3 0.8 86 0.8 W 7 17 4 9 1006.1 1006.8 7.4
25/10:00pm 3.7 0.6 1.4 85 0.9 WSW 7 24 4 13 1005.8 1006.5 7.4
25/09:30pm 4.5 1.3 3.2 91 0.6 W 9 24 5 13 1005.5 1006.2 7.4
25/09:00pm 4.1 0.9 3.2 94 0.4 W 9 19 5 10 1005.3 1006.0 7.4
25/08:30pm 6.0 3.8 5.4 96 0.3 WSW 6 30 3 16 1004.9 1005.5 7.2
25/08:00pm 6.5 3.5 6.1 97 0.2 WNW 11 26 6 14 1004.5 1005.1 7.0
25/07:30pm 6.5 3.9 5.9 96 0.3 WNW 9 19 5 10 1004.1 1004.8 7.0
25/07:00pm 6.6 3.5 5.6 93 0.5 W 11 35 6 19 1003.6 1004.3 3.2
25/06:30pm 7.7 3.5 3.9 77 1.7 NNW 15 32 8 17 1001.8 1002.5 0.0
25/06:00pm 7.5 3.4 4.1 79 1.5 N 15 37 8 20 1001.7 1002.3 0.0
25/05:30pm 7.2 3.0 3.8 79 1.5 N 15 32 8 17 1001.7 1002.3 0.0
25/05:00pm 7.3 3.4 3.5 77 1.7 N 13 33 7 18 1002.2 1002.9 0.0
25/04:30pm 7.3 3.0 3.2 75 1.8 N 15 32 8 17 1002.7 1003.3 0.0
25/04:00pm 7.9 4.3 2.8 70 2.2 N 11 32 6 17 1003.0 1003.6 0.0
25/03:30pm 8.4 4.8 2.8 68 2.4 N 11 33 6 18 1003.7 1004.4 0.0
25/03:00pm 7.7 3.6 2.4 69 2.3 N 13 28 7 15 1004.3 1005.0 0.0
25/02:30pm 7.8 4.1 2.5 69 2.3 N 11 19 6 10 1004.8 1005.4 0.0
25/02:00pm 7.8 4.3 3.7 75 1.8 NNW 11 35 6 19 1005.1 1005.8 0.0
25/01:30pm 7.4 4.4 4.0 79 1.5 NNW 9 20 5 11 1005.8 1006.5 0.0
25/01:00pm 7.3 4.3 4.1 80 1.4 NNW 9 24 5 13 1006.5 1007.1 0.0
25/12:30pm 7.5 3.8 4.6 82 1.3 NW 13 37 7 20 1007.0 1007.7 0.0
25/12:00pm 6.2 3.3 4.4 88 0.8 NNW 9 20 5 11 1007.3 1008.0 0.0
25/11:30am 6.2 3.8 4.5 89 0.8 NNW 6 15 3 8 1007.8 1008.5 0.0
25/11:00am 5.8 3.3 4.6 92 0.5 WNW 7 19 4 10 1008.1 1008.8 0.0
25/10:30am 5.6 3.0 4.1 90 0.7 NW 7 19 4 10 1008.2 1008.9 0.0
25/10:00am 5.5 2.9 4.0 90 0.7 WNW 7 17 4 9 1008.2 1008.9 0.0
25/09:30am 5.2 2.7 3.7 90 0.6 NW 6 15 3 8 1008.1 1008.8 0.0
25/09:00am 5.0 2.5 3.5 90 0.6 NW 6 15 3 8 1007.9 1008.6 1.4
25/08:30am 4.8 1.6 3.3 90 0.6 NW 9 15 5 8 1007.9 1008.6 1.4
25/08:00am 4.7 2.1 3.4 91 0.6 NW 6 11 3 6 1007.5 1008.2 1.2
25/07:30am 4.6 1.8 3.3 91 0.6 WNW 7 17 4 9 1007.1 1007.8 1.2
25/07:00am 4.5 1.7 3.2 91 0.6 NW 7 19 4 10 1006.8 1007.5 1.2
25/06:30am 4.3 1.5 3.3 93 0.4 NW 7 17 4 9 1006.5 1007.1 1.2
25/06:00am 4.1 1.3 3.2 94 0.4 NW 7 15 4 8 1006.0 1006.7 1.2
25/05:30am 4.0 1.4 3.1 94 0.4 NW 6 13 3 7 1005.9 1006.6 1.2
25/05:00am 3.9 1.1 2.9 93 0.4 NW 7 15 4 8 1005.7 1006.4 1.2
25/04:30am 4.0 1.1 2.8 92 0.5 WNW 7 17 4 9 1005.3 1006.0 1.0
25/04:00am 4.0 0.7 2.5 90 0.6 NW 9 22 5 12 1005.0 1005.6 1.0
25/03:30am 4.0 1.3 2.5 90 0.6 NW 6 11 3 6 1004.8 1005.4 1.0
25/03:00am 4.1 1.2 2.8 91 0.5 NNW 7 15 4 8 1004.8 1005.4 1.0
25/02:30am 4.3 1.4 2.8 90 0.6 NNW 7 17 4 9 1004.7 1005.3 1.0
25/02:00am 4.3 1.4 2.8 90 0.6 NNW 7 19 4 10 1004.6 1005.2 1.0
25/01:30am 4.3 1.4 2.8 90 0.6 NNW 7 17 4 9 1004.6 1005.2 1.0
25/01:00am 4.3 1.6 2.8 90 0.6 NNW 6 11 3 6 1004.5 1005.1 1.0
25/12:30am 4.1 1.2 2.8 91 0.5 NNW 7 17 4 9 1004.5 1005.1 1.0
25/12:00am 4.2 1.6 3.0 92 0.5 NNW 6 13 3 7 1004.5 1005.1 1.0
 
Date/Time
EST
Temp
°C
App
Temp
°C
Dew
Point
°C
Rel
Hum
%
Delta-T
°C
Wind Press
QNH
hPa
Press
MSL
hPa
Rain since
9am
mm
Dir  Spd
km/h
Gust
km/h
Spd
kts
Gust
kts
24/11:30pm 4.4 1.8 3.4 93 0.4 NNW 6 17 3 9 1004.6 1005.2 1.0
24/11:00pm 4.4 1.3 3.4 93 0.4 NNW 9 20 5 11 1004.2 1004.9 1.0
24/10:30pm 4.5 1.8 3.6 94 0.4 NNW 7 19 4 10 1004.2 1004.9 1.0
24/10:00pm 4.4 1.8 3.4 93 0.4 NNW 6 15 3 8 1004.3 1005.0 0.8
24/09:30pm 4.6 1.8 3.3 91 0.6 N 7 15 4 8 1004.5 1005.1 0.4
24/09:00pm 4.9 2.1 2.9 87 0.9 N 7 20 4 11 1004.3 1005.0 0.0
24/08:30pm 5.2 2.4 2.9 85 1.0 N 7 17 4 9 1004.6 1005.2 0.0
24/08:00pm 5.5 2.3 2.8 83 1.2 N 9 28 5 15 1004.6 1005.2 0.0
24/07:30pm 5.3 2.0 2.7 83 1.1 NNE 9 26 5 14 1004.3 1005.0 0.0
24/07:00pm 5.1 0.7 2.6 84 1.1 NNE 15 26 8 14 1004.2 1004.9 0.0
24/06:30pm 4.9 1.2 2.3 83 1.1 N 11 22 6 12 1004.5 1005.1 0.0
24/06:00pm 4.8 1.5 2.5 85 1.0 NNE 9 22 5 12 1004.2 1004.9 0.0
24/05:30pm 5.2 1.9 2.6 83 1.1 N 9 24 5 13 1004.6 1005.2 0.0
24/05:00pm 5.2 1.9 2.4 82 1.2 NNE 9 19 5 10 1005.0 1005.6 0.0
24/04:30pm 5.5 2.5 2.3 80 1.3 N 7 20 4 11 1005.1 1005.8 0.0
24/04:00pm 6.0 2.6 2.1 76 1.6 N 9 19 5 10 1005.3 1006.0 0.0
24/03:30pm 5.9 2.5 2.0 76 1.6 N 9 20 5 11 1005.7 1006.4 0.0
24/03:00pm 5.9 2.6 2.4 78 1.5 N 9 20 5 11 1005.9 1006.6 0.0
24/02:30pm 5.7 2.3 2.0 77 1.5 N 9 26 5 14 1005.8 1006.5 0.0
24/02:00pm 5.2 1.4 1.9 79 1.4 N 11 28 6 15 1006.2 1006.9 0.0
24/01:30pm 5.8 2.5 2.3 78 1.5 NNE 9 24 5 13 1006.3 1007.0 0.0
24/01:00pm 5.4 1.7 2.1 79 1.4 NNE 11 30 6 16 1007.1 1007.8 0.0
24/12:30pm 6.1 2.3 2.0 75 1.7 N 11 28 6 15 1007.4 1008.1 0.0
24/12:00pm 6.1 2.8 2.2 76 1.6 N 9 17 5 9 1007.8 1008.5 0.0
24/11:30am 5.8 2.8 2.1 77 1.5 N 7 17 4 9 1008.6 1009.3 0.0
24/11:00am 5.1 2.1 1.9 80 1.3 N 7 15 4 8 1009.2 1009.9 0.0
24/10:30am 5.5 2.4 1.6 76 1.6 N 7 19 4 10 1009.3 1010.0 0.0
24/10:00am 5.4 2.4 1.7 77 1.5 NNW 7 15 4 8 1009.2 1009.9 0.0
24/09:30am 5.0 1.9 1.1 76 1.6 NNW 7 19 4 10 1009.4 1010.1 0.0
24/09:00am 4.4 1.2 0.7 77 1.5 NNW 7 17 4 9 1009.6 1010.3 1.6
24/08:30am 4.1 0.8 0.3 76 1.5 NW 7 17 4 9 1009.6 1010.3 1.6
24/08:00am 2.9 -0.3 -0.2 80 1.2 NNW 6 17 3 9 1009.6 1010.3 1.6
24/07:30am 3.0 -0.1 0.1 81 1.1 NNW 6 11 3 6 1009.7 1010.4 1.6
24/07:00am 2.8 -0.3 0.2 83 1.0 NW 6 15 3 8 1009.8 1010.5 1.6
24/06:30am 2.2 -0.9 0.1 86 0.8 NW 6 9 3 5 1009.7 1010.4 1.6
24/06:00am 2.2 -1.1 -0.1 85 0.9 NW 7 15 4 8 1009.8 1010.5 1.6
24/05:30am 2.4 -0.8 -0.2 83 1.0 NW 6 9 3 5 1009.8 1010.5 1.6
24/05:00am 2.6 -0.6 -0.2 82 1.1 NW 6 13 3 7 1010.1 1010.9 1.6
24/04:30am 2.5 -0.9 -0.3 82 1.1 NW 7 19 4 10 1010.5 1011.3 1.6
24/04:00am 2.3 -0.9 -0.3 83 1.0 NNW 6 13 3 7 1010.5 1011.3 1.6
24/03:30am 2.2 -0.9 0.1 86 0.8 NW 6 17 3 9 1010.8 1011.5 1.6
24/03:00am 2.0 -1.1 0.1 87 0.7 WNW 6 19 3 10 1010.9 1011.6 1.4
24/02:30am 1.8 -0.9 0.2 89 0.6 NW 4 7 2 4 1011.1 1011.8 1.4
24/02:00am 2.3 -0.7 0.5 88 0.7 NW 6 13 3 7 1011.1 1011.8 1.4
24/01:30am 2.5 -0.4 1.2 91 0.5 NW 6 11 3 6 1011.2 1011.9 1.4
24/01:00am 2.4 -0.5 1.4 93 0.4 NW 6 11 3 6 1011.2 1011.9 1.4
24/12:30am 2.4 -0.5 1.5 94 0.4 NW 6 13 3 7 1011.3 1012.0 1.4
24/12:00am 3.1 0.7 2.4 95 0.3 NW 4 7 2 4 1011.6 1012.3 1.4
 
Date/Time
EST
Temp
°C
App
Temp
°C
Dew
Point
°C
Rel
Hum
%
Delta-T
°C
Wind Press
QNH
hPa
Press
MSL
hPa
Rain since
9am
mm
Dir  Spd
km/h
Gust
km/h
Spd
kts
Gust
kts
23/11:30pm 3.1 0.4 2.4 95 0.3 NW 6 11 3 6 1011.6 1012.3 1.4
23/11:00pm 3.2 0.5 2.5 95 0.3 NW 6 13 3 7 1011.8 1012.6 1.4
23/10:30pm 3.1 0.4 2.5 96 0.2 NW 6 13 3 7 1011.7 1012.5 1.4
23/10:00pm 3.1 0.4 2.5 96 0.2 NW 6 13 3 7 1011.6 1012.3 1.4
23/09:30pm 3.0 0.1 2.4 96 0.2 NW 7 13 4 7 1011.6 1012.3 1.4
23/09:00pm 3.1 0.4 2.5 96 0.2 NW 6 13 3 7 1011.5 1012.2 1.4
23/08:30pm 3.3 0.6 2.7 96 0.2 WNW 6 13 3 7 1011.2 1011.9 1.4
23/08:00pm 3.5 1.2 2.8 95 0.3 WNW 4 9 2 5 1010.9 1011.6 1.4
23/07:30pm 3.5 0.8 2.8 95 0.3 WNW 6 15 3 8 1010.5 1011.3 1.4
23/07:00pm 3.5 1.2 2.6 94 0.4 W 4 13 2 7 1010.4 1011.2 1.4
23/06:30pm 3.7 1.4 2.7 93 0.4 W 4 9 2 5 1009.9 1010.6 1.4
23/06:00pm 3.8 1.5 2.6 92 0.5 W 4 15 2 8 1009.5 1010.2 1.2
23/05:30pm 3.7 1.3 2.4 91 0.5 WSW 4 13 2 7 1009.2 1009.9 1.2
23/05:00pm 3.7 0.9 2.2 90 0.6 W 6 15 3 8 1008.7 1009.4 1.2
23/04:30pm 3.8 1.1 2.6 92 0.5 W 6 15 3 8 1008.1 1008.8 1.2
23/04:00pm 3.9 1.6 2.9 93 0.4 W 4 9 2 5 1007.9 1008.6 1.2
23/03:30pm 4.2 1.2 2.1 86 0.9 W 7 15 4 8 1007.5 1008.2 0.8
23/03:00pm 3.6 0.7 1.6 87 0.8 W 6 15 3 8 1007.0 1007.7 0.8
23/02:30pm 5.5 2.4 1.1 73 1.8 W 7 20 4 11 1006.2 1006.9 0.0
23/02:00pm 5.1 1.9 0.7 73 1.8 W 7 15 4 8 1005.9 1006.6 0.0
23/01:30pm 5.3 2.4 1.2 75 1.7 WSW 6 17 3 9 1005.8 1006.5 0.0
23/01:00pm 5.5 2.3 0.9 72 1.9 W 7 17 4 9 1005.6 1006.3 0.0
23/12:30pm 5.2 2.2 0.6 72 1.8 WSW 6 17 3 9 1005.4 1006.1 0.0
23/12:00pm 4.9 1.7 0.7 74 1.7 WSW 7 24 4 13 1005.3 1006.0 0.0
23/11:30am 5.4 2.3 0.4 70 2.0 W 6 19 3 10 1005.4 1006.1 0.0
23/11:00am 6.0 2.9 0.3 67 2.3 W 6 11 3 6 1005.1 1005.8 0.0
23/10:30am 5.0 1.6 -0.6 67 2.2 W 7 19 4 10 1004.6 1005.2 0.0
23/10:00am 6.3 3.9 2.0 74 1.8 WSW 4 9 2 5 1003.9 1004.6 0.0
23/09:30am 4.8 1.7 1.3 78 1.4 W 7 19 4 10 1003.3 1003.9 0.0
23/09:00am 3.5 0.7 2.3 92 0.5 W 6 13 3 7 1002.8 1003.4 17.4
23/08:30am 3.3 0.6 2.6 95 0.3 W 6 13 3 7 1002.0 1002.7 17.4
23/08:00am 3.2 0.9 2.5 95 0.3 W 4 9 2 5 1001.3 1001.9 17.4
23/07:30am 3.6 0.8 3.0 96 0.3 W 7 15 4 8 1000.9 1001.5 17.4
23/07:00am 3.9 1.3 3.3 96 0.3 W 6 13 3 7 1000.0 1000.6 17.4
23/06:30am 3.9 1.1 3.3 96 0.3 W 7 15 4 8 999.2 999.8 17.4
23/06:00am 4.1 1.4 3.5 96 0.3 W 7 15 4 8 998.4 998.9 17.4
23/05:30am 4.1 1.6 3.7 97 0.2 WSW 6 11 3 6 997.6 998.2 17.2
23/05:00am 4.2 1.5 3.6 96 0.3 W 7 20 4 11 996.9 997.5 17.2
23/04:30am 4.2 1.5 3.6 96 0.3 W 7 19 4 10 996.2 996.7 17.0
23/04:00am 4.2 1.7 3.6 96 0.3 W 6 20 3 11 995.5 996.1 16.8
23/03:30am 4.3 1.6 3.6 95 0.3 W 7 15 4 8 994.9 995.4 15.8
23/03:00am 4.7 1.6 3.8 94 0.4 W 9 19 5 10 993.9 994.5 14.8
23/02:30am 5.2 2.5 3.9 91 0.6 W 7 17 4 9 993.3 993.8 14.6
23/02:00am 5.2 1.9 4.5 95 0.3 W 11 30 6 16 993.0 993.5 14.6
23/01:30am 5.5 2.3 5.1 97 0.2 WNW 11 37 6 20 992.7 993.2 14.6
23/01:00am 5.7 2.9 5.3 97 0.2 NW 9 20 5 11 992.6 993.1 14.2
23/12:30am 4.9 2.5 4.5 97 0.2 WNW 6 13 3 7 992.8 993.3 14.0
23/12:00am 5.5 2.6 4.9 96 0.3 WSW 9 24 5 13 992.8 993.3 12.2

Other Formats:

Comma delimited format used in spreadsheet applications
http://www.bom.gov.au/fwo/IDV60801/IDV60801.94872.axf

JavaScript Object Notation format (JSON) in row-major order
http://www.bom.gov.au/fwo/IDV60801/IDV60801.94872.json